sensor_id;sensor_type;location;lat;lon;timestamp;P1;durP1;ratioP1;P2;durP2;ratioP2
25023;SDS011;13033;50.936;5.334;2022-10-16T00:01:10;2.05;;;1.08;;
25023;SDS011;13033;50.936;5.334;2022-10-16T00:03:40;4.13;;;1.30;;
25023;SDS011;13033;50.936;5.334;2022-10-16T00:06:08;3.45;;;1.70;;
25023;SDS011;13033;50.936;5.334;2022-10-16T00:08:34;3.45;;;1.17;;
25023;SDS011;13033;50.936;5.334;2022-10-16T00:11:10;1.92;;;1.27;;
25023;SDS011;13033;50.936;5.334;2022-10-16T00:13:38;4.97;;;1.35;;
25023;SDS011;13033;50.936;5.334;2022-10-16T00:16:05;2.67;;;1.40;;
25023;SDS011;13033;50.936;5.334;2022-10-16T00:18:32;4.35;;;1.27;;
25023;SDS011;13033;50.936;5.334;2022-10-16T00:21:02;1.80;;;1.15;;
25023;SDS011;13033;50.936;5.334;2022-10-16T00:23:32;2.90;;;1.00;;
25023;SDS011;13033;50.936;5.334;2022-10-16T00:25:59;3.65;;;1.35;;
25023;SDS011;13033;50.936;5.334;2022-10-16T00:28:27;2.95;;;1.20;;
25023;SDS011;13033;50.936;5.334;2022-10-16T00:30:53;2.95;;;1.30;;
25023;SDS011;13033;50.936;5.334;2022-10-16T00:33:19;2.42;;;1.20;;
25023;SDS011;13033;50.936;5.334;2022-10-16T00:35:44;2.67;;;1.20;;
25023;SDS011;13033;50.936;5.334;2022-10-16T00:38:11;3.50;;;1.00;;
25023;SDS011;13033;50.936;5.334;2022-10-16T00:40:36;1.17;;;0.93;;
25023;SDS011;13033;50.936;5.334;2022-10-16T00:43:02;1.40;;;0.93;;
25023;SDS011;13033;50.936;5.334;2022-10-16T00:45:29;4.68;;;0.90;;
25023;SDS011;13033;50.936;5.334;2022-10-16T00:47:55;8.45;;;1.10;;
25023;SDS011;13033;50.936;5.334;2022-10-16T00:50:24;5.28;;;0.80;;
25023;SDS011;13033;50.936;5.334;2022-10-16T00:52:51;2.17;;;1.02;;
25023;SDS011;13033;50.936;5.334;2022-10-16T00:55:18;2.78;;;1.02;;
25023;SDS011;13033;50.936;5.334;2022-10-16T00:57:44;1.20;;;0.75;;
25023;SDS011;13033;50.936;5.334;2022-10-16T01:00:16;1.83;;;0.90;;
25023;SDS011;13033;50.936;5.334;2022-10-16T01:02:51;1.85;;;1.02;;
25023;SDS011;13033;50.936;5.334;2022-10-16T01:05:31;2.33;;;1.00;;
25023;SDS011;13033;50.936;5.334;2022-10-16T01:08:17;4.15;;;1.02;;
25023;SDS011;13033;50.936;5.334;2022-10-16T01:10:55;3.78;;;0.80;;
25023;SDS011;13033;50.936;5.334;2022-10-16T01:13:31;1.75;;;0.90;;
25023;SDS011;13033;50.936;5.334;2022-10-16T01:16:05;2.63;;;1.02;;
25023;SDS011;13033;50.936;5.334;2022-10-16T01:18:39;1.77;;;0.93;;
25023;SDS011;13033;50.936;5.334;2022-10-16T01:21:06;4.15;;;1.00;;
25023;SDS011;13033;50.936;5.334;2022-10-16T01:23:48;2.42;;;0.98;;
25023;SDS011;13033;50.936;5.334;2022-10-16T01:31:50;2.70;;;0.82;;
25023;SDS011;13033;50.936;5.334;2022-10-16T01:34:32;5.75;;;1.20;;
25023;SDS011;13033;50.936;5.334;2022-10-16T01:37:04;2.33;;;0.90;;
25023;SDS011;13033;50.936;5.334;2022-10-16T01:39:42;1.70;;;0.60;;
25023;SDS011;13033;50.936;5.334;2022-10-16T01:42:14;4.10;;;0.90;;
25023;SDS011;13033;50.936;5.334;2022-10-16T01:44:45;4.97;;;1.08;;
25023;SDS011;13033;50.936;5.334;2022-10-16T01:47:13;1.30;;;1.10;;
25023;SDS011;13033;50.936;5.334;2022-10-16T01:49:40;2.35;;;0.80;;
25023;SDS011;13033;50.936;5.334;2022-10-16T01:52:15;3.63;;;1.00;;
25023;SDS011;13033;50.936;5.334;2022-10-16T01:54:44;4.50;;;1.00;;
25023;SDS011;13033;50.936;5.334;2022-10-16T01:57:12;4.60;;;0.93;;
25023;SDS011;13033;50.936;5.334;2022-10-16T01:59:41;2.75;;;0.90;;
25023;SDS011;13033;50.936;5.334;2022-10-16T02:02:11;5.07;;;1.13;;
25023;SDS011;13033;50.936;5.334;2022-10-16T02:04:42;2.15;;;0.98;;
25023;SDS011;13033;50.936;5.334;2022-10-16T02:07:11;2.50;;;1.00;;
25023;SDS011;13033;50.936;5.334;2022-10-16T02:09:38;1.63;;;1.00;;
25023;SDS011;13033;50.936;5.334;2022-10-16T02:12:14;3.53;;;1.17;;
25023;SDS011;13033;50.936;5.334;2022-10-16T02:14:50;2.85;;;0.80;;
25023;SDS011;13033;50.936;5.334;2022-10-16T02:17:16;1.90;;;1.00;;
25023;SDS011;13033;50.936;5.334;2022-10-16T02:19:42;2.95;;;1.00;;
25023;SDS011;13033;50.936;5.334;2022-10-16T02:22:45;4.18;;;0.93;;
25023;SDS011;13033;50.936;5.334;2022-10-16T02:25:17;1.98;;;0.73;;
25023;SDS011;13033;50.936;5.334;2022-10-16T02:27:57;1.75;;;1.15;;
25023;SDS011;13033;50.936;5.334;2022-10-16T02:30:41;2.58;;;0.90;;
25023;SDS011;13033;50.936;5.334;2022-10-16T02:33:10;2.58;;;0.95;;
25023;SDS011;13033;50.936;5.334;2022-10-16T02:35:38;2.35;;;1.10;;
25023;SDS011;13033;50.936;5.334;2022-10-16T02:38:06;1.50;;;1.05;;
25023;SDS011;13033;50.936;5.334;2022-10-16T02:40:33;1.75;;;1.13;;
25023;SDS011;13033;50.936;5.334;2022-10-16T02:42:59;3.08;;;1.08;;
25023;SDS011;13033;50.936;5.334;2022-10-16T02:45:25;1.05;;;0.93;;
25023;SDS011;13033;50.936;5.334;2022-10-16T02:47:51;3.13;;;0.85;;
25023;SDS011;13033;50.936;5.334;2022-10-16T02:50:16;2.40;;;1.30;;
25023;SDS011;13033;50.936;5.334;2022-10-16T02:52:42;2.67;;;1.10;;
25023;SDS011;13033;50.936;5.334;2022-10-16T02:55:08;3.38;;;1.02;;
25023;SDS011;13033;50.936;5.334;2022-10-16T02:57:34;2.72;;;1.02;;
25023;SDS011;13033;50.936;5.334;2022-10-16T03:00:02;3.88;;;1.10;;
25023;SDS011;13033;50.936;5.334;2022-10-16T03:02:30;2.85;;;1.08;;
25023;SDS011;13033;50.936;5.334;2022-10-16T03:04:56;5.97;;;1.30;;
25023;SDS011;13033;50.936;5.334;2022-10-16T03:07:22;2.65;;;1.10;;
25023;SDS011;13033;50.936;5.334;2022-10-16T03:09:47;2.00;;;1.02;;
25023;SDS011;13033;50.936;5.334;2022-10-16T03:12:13;4.82;;;1.30;;
25023;SDS011;13033;50.936;5.334;2022-10-16T03:14:38;4.45;;;1.10;;
25023;SDS011;13033;50.936;5.334;2022-10-16T03:17:05;2.30;;;1.10;;
25023;SDS011;13033;50.936;5.334;2022-10-16T03:19:31;3.55;;;0.95;;
25023;SDS011;13033;50.936;5.334;2022-10-16T03:21:56;2.50;;;1.27;;
25023;SDS011;13033;50.936;5.334;2022-10-16T03:24:22;3.33;;;1.13;;
25023;SDS011;13033;50.936;5.334;2022-10-16T03:26:48;2.42;;;1.17;;
25023;SDS011;13033;50.936;5.334;2022-10-16T03:29:13;2.85;;;1.10;;
25023;SDS011;13033;50.936;5.334;2022-10-16T03:31:39;1.67;;;1.17;;
25023;SDS011;13033;50.936;5.334;2022-10-16T03:34:05;2.60;;;1.30;;
25023;SDS011;13033;50.936;5.334;2022-10-16T03:36:30;3.05;;;1.30;;
25023;SDS011;13033;50.936;5.334;2022-10-16T03:38:56;1.33;;;1.23;;
25023;SDS011;13033;50.936;5.334;2022-10-16T03:41:22;3.85;;;1.17;;
25023;SDS011;13033;50.936;5.334;2022-10-16T03:43:47;2.97;;;1.17;;
25023;SDS011;13033;50.936;5.334;2022-10-16T03:46:13;1.58;;;1.00;;
25023;SDS011;13033;50.936;5.334;2022-10-16T03:48:38;2.72;;;1.20;;
25023;SDS011;13033;50.936;5.334;2022-10-16T03:51:05;2.90;;;1.40;;
25023;SDS011;13033;50.936;5.334;2022-10-16T03:53:31;4.38;;;1.30;;
25023;SDS011;13033;50.936;5.334;2022-10-16T03:55:56;3.50;;;1.45;;
25023;SDS011;13033;50.936;5.334;2022-10-16T03:58:23;3.20;;;1.38;;
25023;SDS011;13033;50.936;5.334;2022-10-16T04:00:49;3.13;;;1.20;;
25023;SDS011;13033;50.936;5.334;2022-10-16T04:03:14;1.90;;;1.42;;
25023;SDS011;13033;50.936;5.334;2022-10-16T04:05:40;2.63;;;1.30;;
25023;SDS011;13033;50.936;5.334;2022-10-16T04:08:06;3.78;;;1.42;;
25023;SDS011;13033;50.936;5.334;2022-10-16T04:10:32;1.80;;;1.35;;
25023;SDS011;13033;50.936;5.334;2022-10-16T04:12:58;4.90;;;1.42;;
25023;SDS011;13033;50.936;5.334;2022-10-16T04:15:23;4.25;;;1.67;;
25023;SDS011;13033;50.936;5.334;2022-10-16T04:17:50;4.30;;;1.80;;
25023;SDS011;13033;50.936;5.334;2022-10-16T04:20:16;5.65;;;1.60;;
25023;SDS011;13033;50.936;5.334;2022-10-16T04:22:42;4.35;;;1.70;;
25023;SDS011;13033;50.936;5.334;2022-10-16T04:25:08;4.93;;;1.58;;
25023;SDS011;13033;50.936;5.334;2022-10-16T04:27:34;3.10;;;1.60;;
25023;SDS011;13033;50.936;5.334;2022-10-16T04:29:59;2.67;;;1.58;;
25023;SDS011;13033;50.936;5.334;2022-10-16T04:32:26;1.88;;;1.55;;
25023;SDS011;13033;50.936;5.334;2022-10-16T04:34:52;5.43;;;1.60;;
25023;SDS011;13033;50.936;5.334;2022-10-16T04:37:18;2.95;;;1.45;;
25023;SDS011;13033;50.936;5.334;2022-10-16T04:39:47;4.03;;;2.03;;
25023;SDS011;13033;50.936;5.334;2022-10-16T04:42:13;4.07;;;1.75;;
25023;SDS011;13033;50.936;5.334;2022-10-16T04:44:39;5.47;;;1.77;;
25023;SDS011;13033;50.936;5.334;2022-10-16T04:47:05;4.60;;;2.10;;
25023;SDS011;13033;50.936;5.334;2022-10-16T04:49:30;5.72;;;1.90;;
25023;SDS011;13033;50.936;5.334;2022-10-16T04:51:56;4.53;;;1.92;;
25023;SDS011;13033;50.936;5.334;2022-10-16T04:54:22;2.72;;;1.80;;
25023;SDS011;13033;50.936;5.334;2022-10-16T04:56:47;4.88;;;2.05;;
25023;SDS011;13033;50.936;5.334;2022-10-16T04:59:15;7.75;;;2.50;;
25023;SDS011;13033;50.936;5.334;2022-10-16T05:01:41;5.70;;;2.60;;
25023;SDS011;13033;50.936;5.334;2022-10-16T05:04:07;4.75;;;2.00;;
25023;SDS011;13033;50.936;5.334;2022-10-16T05:06:34;4.88;;;2.05;;
25023;SDS011;13033;50.936;5.334;2022-10-16T05:09:00;4.75;;;2.50;;
25023;SDS011;13033;50.936;5.334;2022-10-16T05:11:25;6.70;;;2.95;;
25023;SDS011;13033;50.936;5.334;2022-10-16T05:13:51;6.97;;;2.65;;
25023;SDS011;13033;50.936;5.334;2022-10-16T05:16:17;3.85;;;2.30;;
25023;SDS011;13033;50.936;5.334;2022-10-16T05:18:42;5.32;;;2.50;;
25023;SDS011;13033;50.936;5.334;2022-10-16T05:21:08;5.22;;;2.50;;
25023;SDS011;13033;50.936;5.334;2022-10-16T05:23:34;7.80;;;2.90;;
25023;SDS011;13033;50.936;5.334;2022-10-16T05:25:59;3.00;;;2.20;;
25023;SDS011;13033;50.936;5.334;2022-10-16T05:28:26;5.38;;;2.72;;
25023;SDS011;13033;50.936;5.334;2022-10-16T05:30:53;5.82;;;2.67;;
25023;SDS011;13033;50.936;5.334;2022-10-16T05:33:22;7.05;;;2.72;;
25023;SDS011;13033;50.936;5.334;2022-10-16T05:35:49;4.57;;;3.13;;
25023;SDS011;13033;50.936;5.334;2022-10-16T05:38:18;4.55;;;2.70;;
25023;SDS011;13033;50.936;5.334;2022-10-16T05:40:49;2.95;;;2.25;;
25023;SDS011;13033;50.936;5.334;2022-10-16T05:43:16;2.80;;;2.28;;
25023;SDS011;13033;50.936;5.334;2022-10-16T05:45:42;4.25;;;2.88;;
25023;SDS011;13033;50.936;5.334;2022-10-16T05:48:07;11.55;;;2.75;;
25023;SDS011;13033;50.936;5.334;2022-10-16T05:50:33;6.63;;;2.47;;
25023;SDS011;13033;50.936;5.334;2022-10-16T05:52:59;3.33;;;2.38;;
25023;SDS011;13033;50.936;5.334;2022-10-16T05:55:24;4.97;;;3.13;;
25023;SDS011;13033;50.936;5.334;2022-10-16T05:57:50;6.40;;;2.75;;
25023;SDS011;13033;50.936;5.334;2022-10-16T06:00:18;3.78;;;2.53;;
25023;SDS011;13033;50.936;5.334;2022-10-16T06:02:44;5.78;;;2.47;;
25023;SDS011;13033;50.936;5.334;2022-10-16T06:05:10;7.82;;;2.47;;
25023;SDS011;13033;50.936;5.334;2022-10-16T06:07:35;11.77;;;3.00;;
25023;SDS011;13033;50.936;5.334;2022-10-16T06:10:01;5.43;;;2.75;;
25023;SDS011;13033;50.936;5.334;2022-10-16T06:12:28;4.80;;;2.78;;
25023;SDS011;13033;50.936;5.334;2022-10-16T06:14:53;5.68;;;2.80;;
25023;SDS011;13033;50.936;5.334;2022-10-16T06:17:19;5.35;;;2.95;;
25023;SDS011;13033;50.936;5.334;2022-10-16T06:19:45;6.47;;;3.10;;
25023;SDS011;13033;50.936;5.334;2022-10-16T06:22:10;4.85;;;2.63;;
25023;SDS011;13033;50.936;5.334;2022-10-16T06:24:36;5.10;;;2.70;;
25023;SDS011;13033;50.936;5.334;2022-10-16T06:27:02;6.80;;;2.55;;
25023;SDS011;13033;50.936;5.334;2022-10-16T06:29:29;8.27;;;3.03;;
25023;SDS011;13033;50.936;5.334;2022-10-16T06:31:54;5.40;;;3.25;;
25023;SDS011;13033;50.936;5.334;2022-10-16T06:34:20;2.40;;;2.20;;
25023;SDS011;13033;50.936;5.334;2022-10-16T06:36:46;5.38;;;2.90;;
25023;SDS011;13033;50.936;5.334;2022-10-16T06:39:11;5.45;;;2.90;;
25023;SDS011;13033;50.936;5.334;2022-10-16T06:41:37;5.00;;;2.88;;
25023;SDS011;13033;50.936;5.334;2022-10-16T06:44:06;3.65;;;2.47;;
25023;SDS011;13033;50.936;5.334;2022-10-16T06:46:32;4.63;;;2.97;;
25023;SDS011;13033;50.936;5.334;2022-10-16T06:48:59;7.28;;;3.13;;
25023;SDS011;13033;50.936;5.334;2022-10-16T06:51:24;4.90;;;2.55;;
25023;SDS011;13033;50.936;5.334;2022-10-16T06:53:52;7.00;;;2.65;;
25023;SDS011;13033;50.936;5.334;2022-10-16T06:56:20;4.78;;;3.05;;
25023;SDS011;13033;50.936;5.334;2022-10-16T06:58:47;5.00;;;2.70;;
25023;SDS011;13033;50.936;5.334;2022-10-16T07:01:13;9.82;;;2.90;;
25023;SDS011;13033;50.936;5.334;2022-10-16T07:03:41;4.18;;;2.58;;
25023;SDS011;13033;50.936;5.334;2022-10-16T07:06:08;5.95;;;2.70;;
25023;SDS011;13033;50.936;5.334;2022-10-16T07:08:36;5.35;;;2.60;;
25023;SDS011;13033;50.936;5.334;2022-10-16T07:11:04;6.47;;;3.28;;
25023;SDS011;13033;50.936;5.334;2022-10-16T07:13:34;5.47;;;2.30;;
25023;SDS011;13033;50.936;5.334;2022-10-16T07:16:07;4.95;;;2.30;;
25023;SDS011;13033;50.936;5.334;2022-10-16T07:18:37;5.07;;;2.70;;
25023;SDS011;13033;50.936;5.334;2022-10-16T07:21:17;3.42;;;2.38;;
25023;SDS011;13033;50.936;5.334;2022-10-16T07:23:45;6.43;;;2.83;;
25023;SDS011;13033;50.936;5.334;2022-10-16T07:26:18;5.88;;;2.72;;
25023;SDS011;13033;50.936;5.334;2022-10-16T07:28:43;7.05;;;2.60;;
25023;SDS011;13033;50.936;5.334;2022-10-16T07:31:10;5.45;;;2.55;;
25023;SDS011;13033;50.936;5.334;2022-10-16T07:33:38;7.18;;;2.50;;
25023;SDS011;13033;50.936;5.334;2022-10-16T07:36:04;6.47;;;2.53;;
25023;SDS011;13033;50.936;5.334;2022-10-16T07:38:31;4.25;;;2.22;;
25023;SDS011;13033;50.936;5.334;2022-10-16T07:41:00;4.63;;;2.65;;
25023;SDS011;13033;50.936;5.334;2022-10-16T07:43:28;3.85;;;2.47;;
25023;SDS011;13033;50.936;5.334;2022-10-16T07:45:54;8.80;;;2.80;;
25023;SDS011;13033;50.936;5.334;2022-10-16T07:48:21;6.63;;;2.50;;
25023;SDS011;13033;50.936;5.334;2022-10-16T07:50:47;3.53;;;2.20;;
25023;SDS011;13033;50.936;5.334;2022-10-16T07:53:13;7.32;;;2.47;;
25023;SDS011;13033;50.936;5.334;2022-10-16T07:55:39;9.52;;;3.28;;
25023;SDS011;13033;50.936;5.334;2022-10-16T07:58:05;4.25;;;2.08;;
25023;SDS011;13033;50.936;5.334;2022-10-16T08:00:32;4.72;;;2.20;;
25023;SDS011;13033;50.936;5.334;2022-10-16T08:02:58;6.35;;;2.10;;
25023;SDS011;13033;50.936;5.334;2022-10-16T08:05:25;4.55;;;1.83;;
25023;SDS011;13033;50.936;5.334;2022-10-16T08:07:55;2.78;;;1.80;;
25023;SDS011;13033;50.936;5.334;2022-10-16T08:10:21;4.70;;;1.85;;
25023;SDS011;13033;50.936;5.334;2022-10-16T08:12:49;3.83;;;1.73;;
25023;SDS011;13033;50.936;5.334;2022-10-16T08:15:15;4.00;;;2.00;;
25023;SDS011;13033;50.936;5.334;2022-10-16T08:17:41;4.72;;;1.80;;
25023;SDS011;13033;50.936;5.334;2022-10-16T08:20:07;3.00;;;1.67;;
25023;SDS011;13033;50.936;5.334;2022-10-16T08:22:33;4.15;;;1.60;;
25023;SDS011;13033;50.936;5.334;2022-10-16T08:24:59;4.78;;;1.67;;
25023;SDS011;13033;50.936;5.334;2022-10-16T08:27:24;4.03;;;1.73;;
25023;SDS011;13033;50.936;5.334;2022-10-16T08:29:50;4.13;;;1.67;;
25023;SDS011;13033;50.936;5.334;2022-10-16T08:32:16;4.22;;;1.42;;
25023;SDS011;13033;50.936;5.334;2022-10-16T08:34:41;4.00;;;1.60;;
25023;SDS011;13033;50.936;5.334;2022-10-16T08:37:07;4.10;;;1.70;;
25023;SDS011;13033;50.936;5.334;2022-10-16T08:39:36;3.67;;;1.60;;
25023;SDS011;13033;50.936;5.334;2022-10-16T08:42:07;4.95;;;1.50;;
25023;SDS011;13033;50.936;5.334;2022-10-16T08:45:12;8.25;;;1.83;;
25023;SDS011;13033;50.936;5.334;2022-10-16T08:50:28;4.55;;;1.58;;
25023;SDS011;13033;50.936;5.334;2022-10-16T08:52:56;4.88;;;2.30;;
25023;SDS011;13033;50.936;5.334;2022-10-16T08:57:57;2.85;;;1.50;;
25023;SDS011;13033;50.936;5.334;2022-10-16T09:00:23;4.30;;;1.75;;
25023;SDS011;13033;50.936;5.334;2022-10-16T09:10:58;5.28;;;1.55;;
25023;SDS011;13033;50.936;5.334;2022-10-16T09:13:32;3.40;;;1.48;;
25023;SDS011;13033;50.936;5.334;2022-10-16T09:16:14;6.07;;;1.40;;
25023;SDS011;13033;50.936;5.334;2022-10-16T09:21:46;4.25;;;1.58;;
25023;SDS011;13033;50.936;5.334;2022-10-16T09:24:19;8.18;;;1.50;;
25023;SDS011;13033;50.936;5.334;2022-10-16T09:26:49;5.30;;;1.75;;
25023;SDS011;13033;50.936;5.334;2022-10-16T09:29:15;5.65;;;1.40;;
25023;SDS011;13033;50.936;5.334;2022-10-16T09:31:44;5.82;;;1.55;;
25023;SDS011;13033;50.936;5.334;2022-10-16T09:34:53;9.65;;;1.60;;
25023;SDS011;13033;50.936;5.334;2022-10-16T09:37:01;4.15;;;1.10;;
25023;SDS011;13033;50.936;5.334;2022-10-16T09:39:30;5.22;;;1.45;;
25023;SDS011;13033;50.936;5.334;2022-10-16T09:42:09;3.10;;;1.30;;
25023;SDS011;13033;50.936;5.334;2022-10-16T09:44:38;2.85;;;1.15;;
25023;SDS011;13033;50.936;5.334;2022-10-16T09:47:06;2.70;;;1.15;;
25023;SDS011;13033;50.936;5.334;2022-10-16T09:49:39;4.80;;;1.48;;
25023;SDS011;13033;50.936;5.334;2022-10-16T09:52:20;4.18;;;1.45;;
25023;SDS011;13033;50.936;5.334;2022-10-16T09:54:57;3.90;;;1.60;;
25023;SDS011;13033;50.936;5.334;2022-10-16T09:57:24;5.03;;;1.10;;
25023;SDS011;13033;50.936;5.334;2022-10-16T09:59:53;4.47;;;1.33;;
25023;SDS011;13033;50.936;5.334;2022-10-16T10:02:28;8.38;;;1.67;;
25023;SDS011;13033;50.936;5.334;2022-10-16T10:04:56;3.72;;;1.20;;
25023;SDS011;13033;50.936;5.334;2022-10-16T10:09:52;5.50;;;1.13;;
25023;SDS011;13033;50.936;5.334;2022-10-16T10:12:29;6.60;;;1.45;;
25023;SDS011;13033;50.936;5.334;2022-10-16T10:15:12;5.30;;;1.33;;
25023;SDS011;13033;50.936;5.334;2022-10-16T10:17:48;5.90;;;1.55;;
25023;SDS011;13033;50.936;5.334;2022-10-16T10:20:22;4.20;;;1.23;;
25023;SDS011;13033;50.936;5.334;2022-10-16T10:22:48;6.20;;;1.40;;
25023;SDS011;13033;50.936;5.334;2022-10-16T10:25:19;6.68;;;1.38;;
25023;SDS011;13033;50.936;5.334;2022-10-16T10:30:41;7.32;;;1.27;;
25023;SDS011;13033;50.936;5.334;2022-10-16T10:35:51;3.20;;;1.15;;
25023;SDS011;13033;50.936;5.334;2022-10-16T10:38:45;6.05;;;1.40;;
25023;SDS011;13033;50.936;5.334;2022-10-16T10:46:50;4.43;;;1.33;;
25023;SDS011;13033;50.936;5.334;2022-10-16T10:57:28;7.03;;;1.35;;
25023;SDS011;13033;50.936;5.334;2022-10-16T11:10:40;4.93;;;1.17;;
25023;SDS011;13033;50.936;5.334;2022-10-16T11:13:17;4.18;;;1.10;;
25023;SDS011;13033;50.936;5.334;2022-10-16T11:15:58;3.22;;;1.25;;
25023;SDS011;13033;50.936;5.334;2022-10-16T11:18:36;4.03;;;1.42;;
25023;SDS011;13033;50.936;5.334;2022-10-16T11:21:05;3.33;;;1.05;;
25023;SDS011;13033;50.936;5.334;2022-10-16T11:23:50;4.03;;;1.08;;
25023;SDS011;13033;50.936;5.334;2022-10-16T11:26:19;3.13;;;0.90;;
25023;SDS011;13033;50.936;5.334;2022-10-16T11:28:54;5.78;;;1.17;;
25023;SDS011;13033;50.936;5.334;2022-10-16T11:31:26;3.10;;;1.20;;
25023;SDS011;13033;50.936;5.334;2022-10-16T11:39:30;4.22;;;1.35;;
25023;SDS011;13033;50.936;5.334;2022-10-16T11:44:48;5.90;;;1.17;;
25023;SDS011;13033;50.936;5.334;2022-10-16T11:47:40;3.25;;;0.98;;
25023;SDS011;13033;50.936;5.334;2022-10-16T11:55:44;4.18;;;1.10;;
25023;SDS011;13033;50.936;5.334;2022-10-16T11:58:16;3.38;;;0.75;;
25023;SDS011;13033;50.936;5.334;2022-10-16T12:00:47;4.43;;;1.25;;
25023;SDS011;13033;50.936;5.334;2022-10-16T12:08:58;3.47;;;1.17;;
25023;SDS011;13033;50.936;5.334;2022-10-16T12:16:56;5.97;;;0.90;;
25023;SDS011;13033;50.936;5.334;2022-10-16T12:19:25;1.85;;;0.93;;
25023;SDS011;13033;50.936;5.334;2022-10-16T12:21:53;4.75;;;0.90;;
25023;SDS011;13033;50.936;5.334;2022-10-16T12:24:36;3.45;;;1.00;;
25023;SDS011;13033;50.936;5.334;2022-10-16T12:27:03;3.97;;;1.08;;
25023;SDS011;13033;50.936;5.334;2022-10-16T12:29:41;2.63;;;0.95;;
25023;SDS011;13033;50.936;5.334;2022-10-16T12:35:00;2.72;;;0.70;;
25023;SDS011;13033;50.936;5.334;2022-10-16T12:37:28;2.72;;;0.80;;
25023;SDS011;13033;50.936;5.334;2022-10-16T12:39:58;3.50;;;0.70;;
25023;SDS011;13033;50.936;5.334;2022-10-16T12:42:36;2.47;;;0.63;;
25023;SDS011;13033;50.936;5.334;2022-10-16T12:45:12;5.97;;;0.90;;
25023;SDS011;13033;50.936;5.334;2022-10-16T12:47:50;3.53;;;1.00;;
25023;SDS011;13033;50.936;5.334;2022-10-16T12:50:25;3.72;;;0.80;;
25023;SDS011;13033;50.936;5.334;2022-10-16T12:52:52;4.05;;;0.60;;
25023;SDS011;13033;50.936;5.334;2022-10-16T12:55:19;3.45;;;0.98;;
25023;SDS011;13033;50.936;5.334;2022-10-16T13:11:19;3.50;;;1.00;;
25023;SDS011;13033;50.936;5.334;2022-10-16T13:22:39;4.35;;;0.70;;
25023;SDS011;13033;50.936;5.334;2022-10-16T13:28:05;4.38;;;0.80;;
25023;SDS011;13033;50.936;5.334;2022-10-16T13:30:42;2.20;;;0.80;;
25023;SDS011;13033;50.936;5.334;2022-10-16T13:36:17;1.58;;;0.80;;
25023;SDS011;13033;50.936;5.334;2022-10-16T13:38:43;2.80;;;0.80;;
25023;SDS011;13033;50.936;5.334;2022-10-16T13:41:16;3.13;;;0.80;;
25023;SDS011;13033;50.936;5.334;2022-10-16T13:43:46;3.22;;;0.90;;
25023;SDS011;13033;50.936;5.334;2022-10-16T13:46:16;3.30;;;0.77;;
25023;SDS011;13033;50.936;5.334;2022-10-16T13:48:44;3.33;;;0.93;;
25023;SDS011;13033;50.936;5.334;2022-10-16T13:51:20;3.83;;;0.90;;
25023;SDS011;13033;50.936;5.334;2022-10-16T13:53:46;5.20;;;0.75;;
25023;SDS011;13033;50.936;5.334;2022-10-16T13:56:13;7.38;;;1.15;;
25023;SDS011;13033;50.936;5.334;2022-10-16T13:58:40;1.50;;;0.70;;
25023;SDS011;13033;50.936;5.334;2022-10-16T14:03:46;6.30;;;1.17;;
25023;SDS011;13033;50.936;5.334;2022-10-16T14:06:14;3.28;;;0.82;;
25023;SDS011;13033;50.936;5.334;2022-10-16T14:08:57;5.15;;;1.10;;
25023;SDS011;13033;50.936;5.334;2022-10-16T14:11:31;3.83;;;0.88;;
25023;SDS011;13033;50.936;5.334;2022-10-16T14:13:58;3.47;;;0.80;;
25023;SDS011;13033;50.936;5.334;2022-10-16T14:16:25;2.22;;;0.63;;
25023;SDS011;13033;50.936;5.334;2022-10-16T14:19:03;2.85;;;0.60;;
25023;SDS011;13033;50.936;5.334;2022-10-16T14:21:32;2.13;;;0.80;;
25023;SDS011;13033;50.936;5.334;2022-10-16T14:23:58;3.03;;;0.90;;
25023;SDS011;13033;50.936;5.334;2022-10-16T14:26:40;2.60;;;1.17;;
25023;SDS011;13033;50.936;5.334;2022-10-16T14:29:15;4.35;;;1.00;;
25023;SDS011;13033;50.936;5.334;2022-10-16T14:31:53;2.17;;;1.00;;
25023;SDS011;13033;50.936;5.334;2022-10-16T14:36:53;3.88;;;1.00;;
25023;SDS011;13033;50.936;5.334;2022-10-16T14:39:20;3.15;;;0.70;;
25023;SDS011;13033;50.936;5.334;2022-10-16T14:41:48;4.80;;;1.10;;
25023;SDS011;13033;50.936;5.334;2022-10-16T14:44:17;4.53;;;1.10;;
25023;SDS011;13033;50.936;5.334;2022-10-16T14:46:43;2.47;;;1.20;;
25023;SDS011;13033;50.936;5.334;2022-10-16T14:51:36;5.50;;;1.00;;
25023;SDS011;13033;50.936;5.334;2022-10-16T14:54:03;7.05;;;1.13;;
25023;SDS011;13033;50.936;5.334;2022-10-16T14:56:30;2.65;;;1.15;;
25023;SDS011;13033;50.936;5.334;2022-10-16T14:59:34;2.42;;;0.68;;
25023;SDS011;13033;50.936;5.334;2022-10-16T15:01:56;2.33;;;0.80;;
25023;SDS011;13033;50.936;5.334;2022-10-16T15:04:22;3.42;;;0.90;;
25023;SDS011;13033;50.936;5.334;2022-10-16T15:06:48;3.58;;;1.10;;
25023;SDS011;13033;50.936;5.334;2022-10-16T15:09:13;2.35;;;0.95;;
25023;SDS011;13033;50.936;5.334;2022-10-16T15:11:39;2.92;;;0.90;;
25023;SDS011;13033;50.936;5.334;2022-10-16T15:14:06;6.15;;;1.65;;
25023;SDS011;13033;50.936;5.334;2022-10-16T15:16:33;6.07;;;1.15;;
25023;SDS011;13033;50.936;5.334;2022-10-16T15:18:59;3.33;;;1.27;;
25023;SDS011;13033;50.936;5.334;2022-10-16T15:21:31;3.65;;;1.65;;
25023;SDS011;13033;50.936;5.334;2022-10-16T15:23:57;3.75;;;1.30;;
25023;SDS011;13033;50.936;5.334;2022-10-16T15:26:24;4.13;;;1.33;;
25023;SDS011;13033;50.936;5.334;2022-10-16T15:28:51;4.80;;;1.23;;
25023;SDS011;13033;50.936;5.334;2022-10-16T15:31:17;3.50;;;1.35;;
25023;SDS011;13033;50.936;5.334;2022-10-16T15:33:43;2.97;;;1.25;;
25023;SDS011;13033;50.936;5.334;2022-10-16T15:36:09;6.05;;;1.50;;
25023;SDS011;13033;50.936;5.334;2022-10-16T15:38:35;3.75;;;1.20;;
25023;SDS011;13033;50.936;5.334;2022-10-16T15:41:01;4.93;;;1.48;;
25023;SDS011;13033;50.936;5.334;2022-10-16T15:43:27;3.05;;;1.27;;
25023;SDS011;13033;50.936;5.334;2022-10-16T15:46:03;3.33;;;1.20;;
25023;SDS011;13033;50.936;5.334;2022-10-16T15:48:31;6.18;;;1.70;;
25023;SDS011;13033;50.936;5.334;2022-10-16T15:50:58;4.65;;;1.65;;
25023;SDS011;13033;50.936;5.334;2022-10-16T15:53:25;4.18;;;2.05;;
25023;SDS011;13033;50.936;5.334;2022-10-16T15:55:50;4.28;;;2.30;;
25023;SDS011;13033;50.936;5.334;2022-10-16T15:58:16;5.20;;;2.15;;
25023;SDS011;13033;50.936;5.334;2022-10-16T16:00:42;9.35;;;2.47;;
25023;SDS011;13033;50.936;5.334;2022-10-16T16:03:08;5.70;;;2.85;;
25023;SDS011;13033;50.936;5.334;2022-10-16T16:05:36;6.30;;;2.05;;
25023;SDS011;13033;50.936;5.334;2022-10-16T16:08:03;5.03;;;2.03;;
25023;SDS011;13033;50.936;5.334;2022-10-16T16:10:28;4.65;;;1.85;;
25023;SDS011;13033;50.936;5.334;2022-10-16T16:12:54;3.78;;;1.67;;
25023;SDS011;13033;50.936;5.334;2022-10-16T16:15:20;6.10;;;1.92;;
25023;SDS011;13033;50.936;5.334;2022-10-16T16:17:47;7.20;;;1.98;;
25023;SDS011;13033;50.936;5.334;2022-10-16T16:20:13;3.35;;;1.60;;
25023;SDS011;13033;50.936;5.334;2022-10-16T16:22:39;4.15;;;2.20;;
25023;SDS011;13033;50.936;5.334;2022-10-16T16:25:05;4.40;;;2.30;;
25023;SDS011;13033;50.936;5.334;2022-10-16T16:27:31;5.25;;;2.20;;
25023;SDS011;13033;50.936;5.334;2022-10-16T16:29:59;7.95;;;2.47;;
25023;SDS011;13033;50.936;5.334;2022-10-16T16:32:25;9.52;;;3.05;;
25023;SDS011;13033;50.936;5.334;2022-10-16T16:34:50;6.50;;;2.90;;
25023;SDS011;13033;50.936;5.334;2022-10-16T16:37:16;6.25;;;2.60;;
25023;SDS011;13033;50.936;5.334;2022-10-16T16:39:42;10.75;;;3.30;;
25023;SDS011;13033;50.936;5.334;2022-10-16T16:42:07;5.28;;;3.20;;
25023;SDS011;13033;50.936;5.334;2022-10-16T16:44:35;6.03;;;3.38;;
25023;SDS011;13033;50.936;5.334;2022-10-16T16:47:01;6.68;;;3.55;;
25023;SDS011;13033;50.936;5.334;2022-10-16T16:49:27;6.68;;;4.13;;
25023;SDS011;13033;50.936;5.334;2022-10-16T16:51:53;8.30;;;5.22;;
25023;SDS011;13033;50.936;5.334;2022-10-16T16:54:19;9.13;;;4.88;;
25023;SDS011;13033;50.936;5.334;2022-10-16T16:56:45;6.47;;;3.22;;